sensor_id;sensor_type;location;lat;lon;timestamp;pressure;altitude;pressure_sealevel;temperature;humidity
12949;BME280;6539;49.476;8.484;2023-02-13T00:00:47;102621.66;;;8.50;74.29
12949;BME280;6539;49.476;8.484;2023-02-13T00:03:15;102633.75;;;8.49;74.12
12949;BME280;6539;49.476;8.484;2023-02-13T00:05:41;102623.94;;;8.48;74.14
12949;BME280;6539;49.476;8.484;2023-02-13T00:08:06;102632.03;;;8.44;74.16
12949;BME280;6539;49.476;8.484;2023-02-13T00:10:35;102629.13;;;8.41;74.35
12949;BME280;6539;49.476;8.484;2023-02-13T00:13:01;102620.81;;;8.37;74.31
12949;BME280;6539;49.476;8.484;2023-02-13T00:15:29;102616.97;;;8.38;74.55
12949;BME280;6539;49.476;8.484;2023-02-13T00:17:57;102615.22;;;8.34;74.48
12949;BME280;6539;49.476;8.484;2023-02-13T00:20:25;102612.13;;;8.35;74.49
12949;BME280;6539;49.476;8.484;2023-02-13T00:22:51;102608.94;;;8.33;74.37
12949;BME280;6539;49.476;8.484;2023-02-13T00:25:17;102614.06;;;8.35;74.45
12949;BME280;6539;49.476;8.484;2023-02-13T00:27:45;102612.94;;;8.36;74.51
12949;BME280;6539;49.476;8.484;2023-02-13T00:30:12;102611.34;;;8.35;74.17
12949;BME280;6539;49.476;8.484;2023-02-13T00:32:38;102601.38;;;8.30;74.44
12949;BME280;6539;49.476;8.484;2023-02-13T00:35:03;102607.66;;;8.31;74.35
12949;BME280;6539;49.476;8.484;2023-02-13T00:37:35;102608.34;;;8.28;74.43
12949;BME280;6539;49.476;8.484;2023-02-13T00:40:03;102616.06;;;8.26;74.47
12949;BME280;6539;49.476;8.484;2023-02-13T00:42:32;102609.34;;;8.23;74.59
12949;BME280;6539;49.476;8.484;2023-02-13T00:44:59;102606.25;;;8.25;74.41
12949;BME280;6539;49.476;8.484;2023-02-13T00:47:25;102613.84;;;8.28;74.05
12949;BME280;6539;49.476;8.484;2023-02-13T00:49:51;102608.81;;;8.30;73.85
12949;BME280;6539;49.476;8.484;2023-02-13T00:52:19;102604.00;;;8.27;73.94
12949;BME280;6539;49.476;8.484;2023-02-13T00:54:49;102604.00;;;8.27;74.00
12949;BME280;6539;49.476;8.484;2023-02-13T00:57:17;102601.28;;;8.27;73.85
12949;BME280;6539;49.476;8.484;2023-02-13T00:59:45;102609.59;;;8.30;73.46
12949;BME280;6539;49.476;8.484;2023-02-13T01:02:11;102601.63;;;8.25;73.53
12949;BME280;6539;49.476;8.484;2023-02-13T01:04:37;102606.91;;;8.22;73.93
12949;BME280;6539;49.476;8.484;2023-02-13T01:07:02;102606.91;;;8.22;73.71
12949;BME280;6539;49.476;8.484;2023-02-13T01:09:28;102618.66;;;8.22;73.84
12949;BME280;6539;49.476;8.484;2023-02-13T01:11:54;102618.53;;;8.19;73.58
12949;BME280;6539;49.476;8.484;2023-02-13T01:14:25;102610.19;;;8.15;73.52
12949;BME280;6539;49.476;8.484;2023-02-13T01:16:51;102615.13;;;8.22;73.21
12949;BME280;6539;49.476;8.484;2023-02-13T01:19:17;102616.91;;;8.18;73.56
12949;BME280;6539;49.476;8.484;2023-02-13T01:21:45;102612.59;;;8.17;73.52
12949;BME280;6539;49.476;8.484;2023-02-13T01:24:13;102614.41;;;8.13;73.53
12949;BME280;6539;49.476;8.484;2023-02-13T01:26:44;102622.63;;;8.13;73.58
12949;BME280;6539;49.476;8.484;2023-02-13T01:29:13;102619.38;;;8.11;73.51
12949;BME280;6539;49.476;8.484;2023-02-13T01:31:39;102609.13;;;8.08;72.84
12949;BME280;6539;49.476;8.484;2023-02-13T01:34:07;102609.78;;;8.05;72.61
12949;BME280;6539;49.476;8.484;2023-02-13T01:36:33;102614.31;;;8.01;72.75
12949;BME280;6539;49.476;8.484;2023-02-13T01:39:01;102613.88;;;7.99;72.78
12949;BME280;6539;49.476;8.484;2023-02-13T01:41:29;102608.13;;;7.92;72.76
12949;BME280;6539;49.476;8.484;2023-02-13T01:43:59;102607.81;;;7.93;73.09
12949;BME280;6539;49.476;8.484;2023-02-13T01:46:36;102608.13;;;7.92;72.93
12949;BME280;6539;49.476;8.484;2023-02-13T01:49:20;102604.59;;;7.91;72.65
12949;BME280;6539;49.476;8.484;2023-02-13T01:51:53;102602.53;;;7.88;72.64
12949;BME280;6539;49.476;8.484;2023-02-13T01:54:27;102607.19;;;7.88;72.90
12949;BME280;6539;49.476;8.484;2023-02-13T01:57:10;102608.78;;;7.89;73.17
12949;BME280;6539;49.476;8.484;2023-02-13T01:59:48;102607.88;;;7.85;73.32
12949;BME280;6539;49.476;8.484;2023-02-13T02:02:16;102608.47;;;7.90;72.36
12949;BME280;6539;49.476;8.484;2023-02-13T02:04:43;102605.97;;;7.77;71.51
12949;BME280;6539;49.476;8.484;2023-02-13T02:07:25;102607.41;;;7.53;72.17
12949;BME280;6539;49.476;8.484;2023-02-13T02:10:00;102611.34;;;7.44;72.69
12949;BME280;6539;49.476;8.484;2023-02-13T02:12:48;102616.16;;;7.38;72.76
12949;BME280;6539;49.476;8.484;2023-02-13T02:15:15;102608.53;;;7.23;72.76
12949;BME280;6539;49.476;8.484;2023-02-13T02:17:41;102607.16;;;7.09;73.27
12949;BME280;6539;49.476;8.484;2023-02-13T02:29:15;102614.50;;;6.70;73.77
12949;BME280;6539;49.476;8.484;2023-02-13T02:40:25;102606.66;;;6.43;74.17
12949;BME280;6539;49.476;8.484;2023-02-13T02:43:10;102605.38;;;6.41;74.08
12949;BME280;6539;49.476;8.484;2023-02-13T02:46:38;102602.00;;;6.44;74.84
12949;BME280;6539;49.476;8.484;2023-02-13T02:49:34;102602.00;;;6.44;74.72
12949;BME280;6539;49.476;8.484;2023-02-13T02:52:38;102606.50;;;6.48;74.11
12949;BME280;6539;49.476;8.484;2023-02-13T02:55:34;102605.19;;;6.63;73.81
12949;BME280;6539;49.476;8.484;2023-02-13T02:58:04;102601.34;;;6.64;73.85
12949;BME280;6539;49.476;8.484;2023-02-13T03:00:56;102602.94;;;6.65;72.88
12949;BME280;6539;49.476;8.484;2023-02-13T03:03:45;102611.31;;;6.60;73.06
12949;BME280;6539;49.476;8.484;2023-02-13T03:06:48;102610.03;;;6.49;72.56
12949;BME280;6539;49.476;8.484;2023-02-13T03:09:28;102615.50;;;6.40;73.14
12949;BME280;6539;49.476;8.484;2023-02-13T03:12:20;102612.94;;;6.44;73.67
12949;BME280;6539;49.476;8.484;2023-02-13T03:15:06;102612.09;;;6.52;73.36
12949;BME280;6539;49.476;8.484;2023-02-13T03:17:32;102617.75;;;6.47;73.34
12949;BME280;6539;49.476;8.484;2023-02-13T03:20:26;102616.59;;;6.56;73.05
12949;BME280;6539;49.476;8.484;2023-02-13T03:24:06;102616.59;;;6.65;72.91
12949;BME280;6539;49.476;8.484;2023-02-13T03:26:57;102625.41;;;6.70;72.81
12949;BME280;6539;49.476;8.484;2023-02-13T03:29:50;102628.16;;;6.70;72.73
12949;BME280;6539;49.476;8.484;2023-02-13T03:32:44;102625.41;;;6.70;72.80
12949;BME280;6539;49.476;8.484;2023-02-13T03:35:22;102626.38;;;6.66;72.94
12949;BME280;6539;49.476;8.484;2023-02-13T03:38:21;102630.41;;;6.68;73.00
12949;BME280;6539;49.476;8.484;2023-02-13T03:40:57;102635.84;;;6.68;72.87
12949;BME280;6539;49.476;8.484;2023-02-13T03:44:38;102634.72;;;6.69;72.80
12949;BME280;6539;49.476;8.484;2023-02-13T03:47:12;102631.84;;;6.66;72.89
12949;BME280;6539;49.476;8.484;2023-02-13T03:49:46;102632.13;;;6.73;72.82
12949;BME280;6539;49.476;8.484;2023-02-13T03:52:52;102637.31;;;6.66;73.00
12949;BME280;6539;49.476;8.484;2023-02-13T03:55:29;102634.56;;;6.66;73.05
12949;BME280;6539;49.476;8.484;2023-02-13T03:58:28;102641.31;;;6.68;72.97
12949;BME280;6539;49.476;8.484;2023-02-13T04:01:18;102638.25;;;6.70;72.76
12949;BME280;6539;49.476;8.484;2023-02-13T04:04:07;102633.13;;;6.68;72.44
12949;BME280;6539;49.476;8.484;2023-02-13T04:06:49;102635.22;;;6.63;73.00
12949;BME280;6539;49.476;8.484;2023-02-13T04:09:21;102628.63;;;6.64;73.02
12949;BME280;6539;49.476;8.484;2023-02-13T04:13:02;102630.69;;;6.67;72.97
12949;BME280;6539;49.476;8.484;2023-02-13T04:15:09;102627.34;;;6.61;72.76
12949;BME280;6539;49.476;8.484;2023-02-13T04:17:45;102629.13;;;6.57;73.29
12949;BME280;6539;49.476;8.484;2023-02-13T04:20:15;102634.25;;;6.59;73.76
12949;BME280;6539;49.476;8.484;2023-02-13T04:22:46;102631.66;;;6.62;73.22
12949;BME280;6539;49.476;8.484;2023-02-13T04:25:17;102625.44;;;6.62;73.25
12949;BME280;6539;49.476;8.484;2023-02-13T04:27:48;102622.22;;;6.60;73.60
12949;BME280;6539;49.476;8.484;2023-02-13T04:30:14;102630.56;;;6.55;73.84
12949;BME280;6539;49.476;8.484;2023-02-13T04:32:40;102625.59;;;6.57;74.03
12949;BME280;6539;49.476;8.484;2023-02-13T04:35:06;102633.78;;;6.57;73.69
12949;BME280;6539;49.476;8.484;2023-02-13T04:37:35;102629.44;;;6.56;73.58
12949;BME280;6539;49.476;8.484;2023-02-13T04:40:04;102628.31;;;6.57;73.31
12949;BME280;6539;49.476;8.484;2023-02-13T04:42:30;102628.31;;;6.57;73.29
12949;BME280;6539;49.476;8.484;2023-02-13T04:44:58;102625.13;;;6.55;72.98
12949;BME280;6539;49.476;8.484;2023-02-13T04:47:26;102617.75;;;6.47;72.82
12949;BME280;6539;49.476;8.484;2023-02-13T04:49:54;102630.91;;;6.53;72.99
12949;BME280;6539;49.476;8.484;2023-02-13T04:52:22;102624.47;;;6.49;71.97
12949;BME280;6539;49.476;8.484;2023-02-13T04:54:50;102633.63;;;6.36;70.88
12949;BME280;6539;49.476;8.484;2023-02-13T04:57:16;102628.81;;;6.16;69.83
12949;BME280;6539;49.476;8.484;2023-02-13T04:59:42;102625.75;;;5.92;70.45
12949;BME280;6539;49.476;8.484;2023-02-13T05:02:11;102622.50;;;5.81;70.85
12949;BME280;6539;49.476;8.484;2023-02-13T05:04:41;102626.19;;;5.77;71.29
12949;BME280;6539;49.476;8.484;2023-02-13T05:07:07;102629.84;;;5.72;72.29
12949;BME280;6539;49.476;8.484;2023-02-13T05:09:35;102631.47;;;5.73;71.73
12949;BME280;6539;49.476;8.484;2023-02-13T05:12:01;102633.06;;;5.74;72.53
12949;BME280;6539;49.476;8.484;2023-02-13T05:14:27;102633.88;;;5.75;71.89
12949;BME280;6539;49.476;8.484;2023-02-13T05:16:55;102636.41;;;5.63;72.75
12949;BME280;6539;49.476;8.484;2023-02-13T05:19:21;102633.72;;;5.71;72.99
12949;BME280;6539;49.476;8.484;2023-02-13T05:21:47;102632.09;;;5.70;73.14
12949;BME280;6539;49.476;8.484;2023-02-13T05:24:31;102631.28;;;5.61;73.10
12949;BME280;6539;49.476;8.484;2023-02-13T05:26:57;102634.66;;;5.58;72.83
12949;BME280;6539;49.476;8.484;2023-02-13T05:29:25;102636.41;;;5.54;72.82
12949;BME280;6539;49.476;8.484;2023-02-13T05:31:56;102633.97;;;5.53;73.30
12949;BME280;6539;49.476;8.484;2023-02-13T05:34:25;102638.59;;;5.52;73.32
12949;BME280;6539;49.476;8.484;2023-02-13T05:36:54;102638.00;;;5.55;73.76
12949;BME280;6539;49.476;8.484;2023-02-13T05:39:20;102637.19;;;5.63;73.50
12949;BME280;6539;49.476;8.484;2023-02-13T05:41:47;102634.19;;;5.65;73.41
12949;BME280;6539;49.476;8.484;2023-02-13T05:44:15;102632.41;;;5.69;73.49
12949;BME280;6539;49.476;8.484;2023-02-13T05:46:44;102637.19;;;5.63;72.78
12949;BME280;6539;49.476;8.484;2023-02-13T05:49:14;102628.97;;;5.46;72.97
12949;BME280;6539;49.476;8.484;2023-02-13T05:51:41;102629.16;;;5.41;73.41
12949;BME280;6539;49.476;8.484;2023-02-13T05:54:07;102625.09;;;5.30;73.50
12949;BME280;6539;49.476;8.484;2023-02-13T05:56:38;102620.28;;;5.27;72.95
12949;BME280;6539;49.476;8.484;2023-02-13T05:59:04;102623.44;;;5.20;74.50
12949;BME280;6539;49.476;8.484;2023-02-13T06:01:30;102622.81;;;5.23;78.59
12949;BME280;6539;49.476;8.484;2023-02-13T06:03:58;102619.63;;;5.21;75.98
12949;BME280;6539;49.476;8.484;2023-02-13T06:06:24;102617.19;;;5.20;76.04
12949;BME280;6539;49.476;8.484;2023-02-13T06:08:51;102621.22;;;5.22;75.14
12949;BME280;6539;49.476;8.484;2023-02-13T06:11:21;102626.50;;;5.19;73.89
12949;BME280;6539;49.476;8.484;2023-02-13T06:13:52;102626.50;;;5.19;73.29
12949;BME280;6539;49.476;8.484;2023-02-13T06:16:22;102624.25;;;5.21;74.00
12949;BME280;6539;49.476;8.484;2023-02-13T06:18:50;102637.53;;;5.22;73.46
12949;BME280;6539;49.476;8.484;2023-02-13T06:21:16;102635.94;;;5.21;73.56
12949;BME280;6539;49.476;8.484;2023-02-13T06:23:46;102639.16;;;5.23;73.42
12949;BME280;6539;49.476;8.484;2023-02-13T06:26:14;102634.34;;;5.20;72.37
12949;BME280;6539;49.476;8.484;2023-02-13T06:28:48;102636.66;;;5.05;73.03
12949;BME280;6539;49.476;8.484;2023-02-13T06:31:15;102638.19;;;4.89;72.22
12949;BME280;6539;49.476;8.484;2023-02-13T06:33:40;102643.25;;;4.82;72.48
12949;BME280;6539;49.476;8.484;2023-02-13T06:36:09;102638.75;;;4.77;73.14
12949;BME280;6539;49.476;8.484;2023-02-13T06:38:34;102648.34;;;4.75;73.84
12949;BME280;6539;49.476;8.484;2023-02-13T06:41:03;102643.03;;;4.70;72.98
12949;BME280;6539;49.476;8.484;2023-02-13T06:43:29;102649.84;;;4.58;73.77
12949;BME280;6539;49.476;8.484;2023-02-13T06:46:01;102644.28;;;4.63;74.42
12949;BME280;6539;49.476;8.484;2023-02-13T06:48:28;102642.06;;;4.66;74.45
12949;BME280;6539;49.476;8.484;2023-02-13T06:50:54;102656.75;;;4.64;73.50
12949;BME280;6539;49.476;8.484;2023-02-13T06:53:23;102651.75;;;4.58;73.49
12949;BME280;6539;49.476;8.484;2023-02-13T06:55:54;102642.91;;;4.52;73.63
12949;BME280;6539;49.476;8.484;2023-02-13T06:58:21;102654.28;;;4.54;73.79
12949;BME280;6539;49.476;8.484;2023-02-13T07:00:50;102652.75;;;4.40;74.64
12949;BME280;6539;49.476;8.484;2023-02-13T07:03:23;102660.81;;;4.31;75.58
12949;BME280;6539;49.476;8.484;2023-02-13T07:05:52;102656.91;;;4.24;75.95
12949;BME280;6539;49.476;8.484;2023-02-13T07:08:18;102657.19;;;4.00;76.56
12949;BME280;6539;49.476;8.484;2023-02-13T07:10:44;102655.84;;;4.11;77.20
12949;BME280;6539;49.476;8.484;2023-02-13T07:13:10;102658.97;;;4.40;76.75
12949;BME280;6539;49.476;8.484;2023-02-13T07:15:38;102663.06;;;4.51;75.71
12949;BME280;6539;49.476;8.484;2023-02-13T07:18:07;102659.19;;;4.44;75.13
12949;BME280;6539;49.476;8.484;2023-02-13T07:20:33;102659.53;;;4.51;74.83
12949;BME280;6539;49.476;8.484;2023-02-13T07:23:02;102660.72;;;4.58;74.65
12949;BME280;6539;49.476;8.484;2023-02-13T07:25:29;102660.22;;;4.56;74.48
12949;BME280;6539;49.476;8.484;2023-02-13T07:28:04;102664.59;;;4.66;74.52
12949;BME280;6539;49.476;8.484;2023-02-13T07:30:33;102662.44;;;4.54;74.98
12949;BME280;6539;49.476;8.484;2023-02-13T07:33:03;102661.69;;;4.40;75.20
12949;BME280;6539;49.476;8.484;2023-02-13T07:35:30;102657.63;;;4.51;75.11
12949;BME280;6539;49.476;8.484;2023-02-13T07:37:56;102660.47;;;4.69;74.70
12949;BME280;6539;49.476;8.484;2023-02-13T07:40:22;102660.78;;;4.67;74.39
12949;BME280;6539;49.476;8.484;2023-02-13T07:42:50;102661.88;;;4.66;74.26
12949;BME280;6539;49.476;8.484;2023-02-13T07:45:19;102670.78;;;4.58;75.29
12949;BME280;6539;49.476;8.484;2023-02-13T07:47:47;102667.31;;;4.66;75.42
12949;BME280;6539;49.476;8.484;2023-02-13T07:50:16;102670.75;;;4.72;74.68
12949;BME280;6539;49.476;8.484;2023-02-13T07:52:42;102671.91;;;4.79;74.86
12949;BME280;6539;49.476;8.484;2023-02-13T07:55:08;102672.88;;;4.83;74.88
12949;BME280;6539;49.476;8.484;2023-02-13T07:57:36;102671.94;;;4.88;74.89
12949;BME280;6539;49.476;8.484;2023-02-13T08:00:02;102675.38;;;4.93;74.71
12949;BME280;6539;49.476;8.484;2023-02-13T08:02:28;102673.94;;;4.96;74.75
12949;BME280;6539;49.476;8.484;2023-02-13T08:04:56;102674.56;;;4.93;75.17
12949;BME280;6539;49.476;8.484;2023-02-13T08:07:21;102670.16;;;4.83;75.91
12949;BME280;6539;49.476;8.484;2023-02-13T08:09:47;102671.25;;;5.04;75.72
12949;BME280;6539;49.476;8.484;2023-02-13T08:12:34;102674.03;;;5.13;75.65
12949;BME280;6539;49.476;8.484;2023-02-13T08:15:02;102671.47;;;5.16;75.12
12949;BME280;6539;49.476;8.484;2023-02-13T08:17:28;102670.13;;;5.36;75.44
12949;BME280;6539;49.476;8.484;2023-02-13T08:19:57;102665.41;;;5.67;74.61
12949;BME280;6539;49.476;8.484;2023-02-13T08:22:22;102676.44;;;5.93;72.76
12949;BME280;6539;49.476;8.484;2023-02-13T08:24:48;102682.38;;;5.95;72.45
12949;BME280;6539;49.476;8.484;2023-02-13T08:27:14;102678.19;;;5.97;72.30
12949;BME280;6539;49.476;8.484;2023-02-13T08:29:40;102677.69;;;5.95;72.68
12949;BME280;6539;49.476;8.484;2023-02-13T08:32:08;102671.56;;;5.81;73.51
12949;BME280;6539;49.476;8.484;2023-02-13T08:34:34;102678.59;;;5.82;73.50
12949;BME280;6539;49.476;8.484;2023-02-13T08:37:01;102677.22;;;5.93;74.30
12949;BME280;6539;49.476;8.484;2023-02-13T08:39:29;102678.72;;;6.76;78.80
12949;BME280;6539;49.476;8.484;2023-02-13T08:41:55;102671.16;;;7.66;73.62
12949;BME280;6539;49.476;8.484;2023-02-13T08:44:26;102666.38;;;8.75;68.77
12949;BME280;6539;49.476;8.484;2023-02-13T08:46:52;102660.69;;;9.85;65.24
12949;BME280;6539;49.476;8.484;2023-02-13T08:49:20;102660.94;;;10.59;60.72
12949;BME280;6539;49.476;8.484;2023-02-13T08:51:45;102665.06;;;11.24;56.47
12949;BME280;6539;49.476;8.484;2023-02-13T08:54:11;102664.19;;;11.67;54.38
12949;BME280;6539;49.476;8.484;2023-02-13T08:56:39;102670.47;;;12.18;51.61
12949;BME280;6539;49.476;8.484;2023-02-13T08:59:05;102661.19;;;12.64;51.29
12949;BME280;6539;49.476;8.484;2023-02-13T09:01:37;102663.41;;;12.97;49.66
12949;BME280;6539;49.476;8.484;2023-02-13T09:04:05;102659.63;;;13.50;49.69
12949;BME280;6539;49.476;8.484;2023-02-13T09:06:36;102665.97;;;13.77;47.37
12949;BME280;6539;49.476;8.484;2023-02-13T09:09:04;102659.03;;;14.16;46.79
12949;BME280;6539;49.476;8.484;2023-02-13T09:11:30;102657.31;;;14.64;45.22
12949;BME280;6539;49.476;8.484;2023-02-13T09:13:56;102661.22;;;15.00;44.26
12949;BME280;6539;49.476;8.484;2023-02-13T09:16:29;102669.63;;;15.07;43.53
12949;BME280;6539;49.476;8.484;2023-02-13T09:18:57;102656.19;;;15.09;43.59
12949;BME280;6539;49.476;8.484;2023-02-13T09:21:23;102664.63;;;14.86;44.10
12949;BME280;6539;49.476;8.484;2023-02-13T09:23:53;102666.75;;;14.96;43.52
12949;BME280;6539;49.476;8.484;2023-02-13T09:26:21;102662.16;;;14.74;44.51
12949;BME280;6539;49.476;8.484;2023-02-13T09:28:47;102668.66;;;14.92;44.36
12949;BME280;6539;49.476;8.484;2023-02-13T09:31:17;102671.44;;;15.33;43.96
12949;BME280;6539;49.476;8.484;2023-02-13T09:33:47;102676.03;;;15.62;43.67
12949;BME280;6539;49.476;8.484;2023-02-13T09:36:17;102668.78;;;16.01;42.44
12949;BME280;6539;49.476;8.484;2023-02-13T09:38:46;102675.38;;;15.79;42.58
12949;BME280;6539;49.476;8.484;2023-02-13T09:41:38;102678.72;;;16.09;42.45
12949;BME280;6539;49.476;8.484;2023-02-13T09:44:18;102679.59;;;16.17;41.59
12949;BME280;6539;49.476;8.484;2023-02-13T09:50:17;102669.97;;;16.75;41.50
12949;BME280;6539;49.476;8.484;2023-02-13T09:52:45;102673.53;;;16.87;41.29
12949;BME280;6539;49.476;8.484;2023-02-13T09:55:41;102685.22;;;16.34;41.35
12949;BME280;6539;49.476;8.484;2023-02-13T10:01:04;102685.19;;;16.27;42.32
12949;BME280;6539;49.476;8.484;2023-02-13T10:06:33;102675.78;;;15.34;44.32
12949;BME280;6539;49.476;8.484;2023-02-13T10:17:53;102672.44;;;15.54;44.20
12949;BME280;6539;49.476;8.484;2023-02-13T10:20:34;102673.25;;;15.58;43.76
12949;BME280;6539;49.476;8.484;2023-02-13T10:23:26;102668.06;;;15.53;44.61
12949;BME280;6539;49.476;8.484;2023-02-13T10:26:00;102676.91;;;15.69;43.74
12949;BME280;6539;49.476;8.484;2023-02-13T10:28:56;102676.63;;;15.88;44.11
12949;BME280;6539;49.476;8.484;2023-02-13T10:31:48;102676.41;;;16.18;43.63
12949;BME280;6539;49.476;8.484;2023-02-13T10:34:17;102676.75;;;16.06;42.80
12949;BME280;6539;49.476;8.484;2023-02-13T10:36:48;102662.44;;;15.97;43.37
12949;BME280;6539;49.476;8.484;2023-02-13T10:39:29;102662.44;;;15.97;43.61
12949;BME280;6539;49.476;8.484;2023-02-13T10:42:20;102665.50;;;15.78;44.27
12949;BME280;6539;49.476;8.484;2023-02-13T10:52:55;102665.22;;;15.97;44.16
12949;BME280;6539;49.476;8.484;2023-02-13T10:55:51;102664.47;;;16.03;43.44
12949;BME280;6539;49.476;8.484;2023-02-13T10:59:00;102653.41;;;16.11;43.51
12949;BME280;6539;49.476;8.484;2023-02-13T11:04:19;102647.97;;;16.35;42.82
12949;BME280;6539;49.476;8.484;2023-02-13T11:06:57;102638.59;;;16.54;41.54
12949;BME280;6539;49.476;8.484;2023-02-13T11:09:27;102640.06;;;16.30;41.71
12949;BME280;6539;49.476;8.484;2023-02-13T11:11:56;102630.22;;;16.47;41.75
12949;BME280;6539;49.476;8.484;2023-02-13T11:14:26;102627.91;;;16.70;41.52
12949;BME280;6539;49.476;8.484;2023-02-13T11:17:01;102627.53;;;16.64;40.42
12949;BME280;6539;49.476;8.484;2023-02-13T11:20:00;102625.13;;;16.63;40.46
12949;BME280;6539;49.476;8.484;2023-02-13T11:22:40;102618.41;;;16.60;41.03
12949;BME280;6539;49.476;8.484;2023-02-13T11:25:27;102620.78;;;16.65;40.34
12949;BME280;6539;49.476;8.484;2023-02-13T11:28:13;102626.22;;;16.41;40.38
12949;BME280;6539;49.476;8.484;2023-02-13T11:30:44;102616.84;;;16.66;39.45
12949;BME280;6539;49.476;8.484;2023-02-13T11:35:45;102616.88;;;17.02;38.17
12949;BME280;6539;49.476;8.484;2023-02-13T11:41:06;102618.31;;;16.46;39.63
12949;BME280;6539;49.476;8.484;2023-02-13T11:43:53;102622.28;;;16.49;39.83
12949;BME280;6539;49.476;8.484;2023-02-13T11:46:29;102615.06;;;16.27;39.97
12949;BME280;6539;49.476;8.484;2023-02-13T11:48:57;102624.47;;;16.04;40.17
12949;BME280;6539;49.476;8.484;2023-02-13T11:51:45;102617.25;;;15.89;40.62
12949;BME280;6539;49.476;8.484;2023-02-13T11:57:28;102608.28;;;16.14;40.26
12949;BME280;6539;49.476;8.484;2023-02-13T11:59:58;102604.75;;;16.20;39.69
12949;BME280;6539;49.476;8.484;2023-02-13T12:02:43;102603.50;;;16.07;40.10
12949;BME280;6539;49.476;8.484;2023-02-13T12:05:23;102603.56;;;16.21;39.38
12949;BME280;6539;49.476;8.484;2023-02-13T12:07:50;102598.34;;;16.02;39.51
12949;BME280;6539;49.476;8.484;2023-02-13T12:10:28;102592.81;;;16.02;40.10
12949;BME280;6539;49.476;8.484;2023-02-13T12:13:20;102587.31;;;16.16;40.45
12949;BME280;6539;49.476;8.484;2023-02-13T12:16:03;102588.53;;;16.22;40.47
12949;BME280;6539;49.476;8.484;2023-02-13T12:18:44;102592.56;;;15.60;42.22
12949;BME280;6539;49.476;8.484;2023-02-13T12:24:57;102594.09;;;15.50;42.84
12949;BME280;6539;49.476;8.484;2023-02-13T12:39:40;102568.78;;;15.52;42.13
12949;BME280;6539;49.476;8.484;2023-02-13T12:51:39;102557.72;;;15.01;43.55
12949;BME280;6539;49.476;8.484;2023-02-13T12:57:53;102563.41;;;14.75;43.99
12949;BME280;6539;49.476;8.484;2023-02-13T13:06:36;102547.06;;;15.06;43.50
12949;BME280;6539;49.476;8.484;2023-02-13T13:26:59;102523.72;;;14.57;44.84
12949;BME280;6539;49.476;8.484;2023-02-13T13:29:40;102526.03;;;14.51;44.95
12949;BME280;6539;49.476;8.484;2023-02-13T13:32:16;102523.22;;;14.44;45.31
12949;BME280;6539;49.476;8.484;2023-02-13T13:34:45;102520.41;;;14.40;45.44
12949;BME280;6539;49.476;8.484;2023-02-13T13:40:28;102515.75;;;14.15;45.91
12949;BME280;6539;49.476;8.484;2023-02-13T13:43:16;102517.66;;;14.07;46.09
12949;BME280;6539;49.476;8.484;2023-02-13T13:49:08;102518.16;;;13.87;47.24
12949;BME280;6539;49.476;8.484;2023-02-13T13:51:39;102516.22;;;13.87;47.17
12949;BME280;6539;49.476;8.484;2023-02-13T14:05:01;102500.91;;;13.63;47.72
12949;BME280;6539;49.476;8.484;2023-02-13T14:07:40;102494.19;;;13.61;48.04
12949;BME280;6539;49.476;8.484;2023-02-13T14:12:59;102493.03;;;13.62;48.41
12949;BME280;6539;49.476;8.484;2023-02-13T14:26:36;102479.94;;;13.55;48.75
12949;BME280;6539;49.476;8.484;2023-02-13T14:29:26;102480.72;;;13.56;48.71
12949;BME280;6539;49.476;8.484;2023-02-13T14:32:13;102477.97;;;13.56;48.19
12949;BME280;6539;49.476;8.484;2023-02-13T14:34:52;102479.97;;;13.59;48.27
12949;BME280;6539;49.476;8.484;2023-02-13T14:37:30;102484.25;;;13.56;48.51
12949;BME280;6539;49.476;8.484;2023-02-13T14:42:50;102475.50;;;13.47;48.72
12949;BME280;6539;49.476;8.484;2023-02-13T14:45:23;102474.97;;;13.38;48.87
12949;BME280;6539;49.476;8.484;2023-02-13T14:47:54;102475.63;;;13.28;49.14
12949;BME280;6539;49.476;8.484;2023-02-13T14:50:33;102471.69;;;13.29;49.32
12949;BME280;6539;49.476;8.484;2023-02-13T14:53:15;102473.91;;;13.20;49.20
12949;BME280;6539;49.476;8.484;2023-02-13T14:55:44;102476.31;;;13.22;49.21
12949;BME280;6539;49.476;8.484;2023-02-13T14:58:32;102472.38;;;13.23;49.38
12949;BME280;6539;49.476;8.484;2023-02-13T15:03:53;102464.53;;;13.25;49.59
12949;BME280;6539;49.476;8.484;2023-02-13T15:06:30;102462.59;;;13.29;49.57
12949;BME280;6539;49.476;8.484;2023-02-13T15:09:04;102469.31;;;13.28;49.41
12949;BME280;6539;49.476;8.484;2023-02-13T15:11:39;102465.31;;;13.25;49.51
12949;BME280;6539;49.476;8.484;2023-02-13T15:14:35;102468.38;;;13.20;50.08
12949;BME280;6539;49.476;8.484;2023-02-13T15:17:32;102464.06;;;13.19;49.97
12949;BME280;6539;49.476;8.484;2023-02-13T15:20:25;102464.41;;;13.18;49.85
12949;BME280;6539;49.476;8.484;2023-02-13T15:22:52;102473.50;;;13.18;49.94
12949;BME280;6539;49.476;8.484;2023-02-13T15:25:38;102467.63;;;13.20;49.97
12949;BME280;6539;49.476;8.484;2023-02-13T15:28:07;102472.69;;;13.18;50.03
12949;BME280;6539;49.476;8.484;2023-02-13T15:33:23;102463.94;;;13.12;50.40
12949;BME280;6539;49.476;8.484;2023-02-13T15:36:03;102463.94;;;13.12;50.22
12949;BME280;6539;49.476;8.484;2023-02-13T15:38:36;102465.09;;;13.11;50.41
12949;BME280;6539;49.476;8.484;2023-02-13T15:41:06;102463.09;;;13.08;50.77
12949;BME280;6539;49.476;8.484;2023-02-13T15:43:47;102457.16;;;13.06;50.80
12949;BME280;6539;49.476;8.484;2023-02-13T15:46:30;102456.72;;;13.04;50.92
12949;BME280;6539;49.476;8.484;2023-02-13T15:49:13;102453.53;;;13.02;51.17
12949;BME280;6539;49.476;8.484;2023-02-13T15:51:46;102460.19;;;13.01;51.30
12949;BME280;6539;49.476;8.484;2023-02-13T15:54:31;102459.34;;;12.97;51.42
12949;BME280;6539;49.476;8.484;2023-02-13T15:57:04;102456.19;;;12.95;51.58
12949;BME280;6539;49.476;8.484;2023-02-13T15:59:38;102448.63;;;12.92;51.95
12949;BME280;6539;49.476;8.484;2023-02-13T16:02:15;102456.13;;;12.91;51.97
12949;BME280;6539;49.476;8.484;2023-02-13T16:04:43;102452.09;;;12.85;52.21
12949;BME280;6539;49.476;8.484;2023-02-13T16:07:13;102454.41;;;12.83;52.12
12949;BME280;6539;49.476;8.484;2023-02-13T16:09:40;102456.75;;;12.81;52.67